createdAt,value
2018-02-25T00:00:09.743Z,0
2018-02-25T00:01:11.417Z,0
2018-02-25T00:02:13.055Z,0
2018-02-25T00:03:14.698Z,0
2018-02-25T00:04:16.441Z,0
2018-02-25T00:05:18.108Z,0
2018-02-25T00:06:19.745Z,0
2018-02-25T00:07:21.398Z,0
2018-02-25T00:08:23.119Z,0
2018-02-25T00:09:24.770Z,0
2018-02-25T00:10:26.410Z,0
2018-02-25T00:11:28.643Z,0
2018-02-25T00:12:30.277Z,0
2018-02-25T00:13:31.940Z,0
2018-02-25T00:14:33.590Z,0
2018-02-25T00:15:35.249Z,0
2018-02-25T00:16:36.902Z,0
2018-02-25T00:17:38.543Z,0
2018-02-25T00:18:40.220Z,0
2018-02-25T00:19:41.831Z,0
2018-02-25T00:20:43.488Z,0
2018-02-25T00:21:45.135Z,0
2018-02-25T00:22:46.787Z,0
2018-02-25T00:23:48.432Z,0
2018-02-25T00:24:50.069Z,0
2018-02-25T00:25:51.726Z,0
2018-02-25T00:26:53.392Z,0
2018-02-25T00:27:55.046Z,0
2018-02-25T00:28:56.691Z,0
2018-02-25T00:29:58.336Z,0
2018-02-25T00:30:59.970Z,0
2018-02-25T00:32:01.618Z,0
2018-02-25T00:33:03.257Z,0
2018-02-25T00:34:04.916Z,0
2018-02-25T00:35:06.550Z,0
2018-02-25T00:36:08.283Z,0
2018-02-25T00:37:09.925Z,0
2018-02-25T00:38:11.571Z,0
2018-02-25T00:39:13.220Z,0
2018-02-25T00:40:14.865Z,0
2018-02-25T00:41:16.525Z,0
2018-02-25T00:42:18.166Z,0
2018-02-25T00:43:19.818Z,0
2018-02-25T00:44:21.459Z,0
2018-02-25T00:45:23.099Z,0
2018-02-25T00:46:24.741Z,0
2018-02-25T00:47:26.386Z,0
2018-02-25T00:48:28.047Z,0
2018-02-25T00:49:29.691Z,0
2018-02-25T00:50:31.341Z,0
2018-02-25T00:51:32.979Z,0
2018-02-25T00:52:34.627Z,0
2018-02-25T00:53:36.260Z,0
2018-02-25T00:54:38.016Z,0
2018-02-25T00:55:39.652Z,0
2018-02-25T00:56:41.306Z,0
2018-02-25T00:57:42.951Z,0
2018-02-25T00:58:44.594Z,0
2018-02-25T00:59:46.232Z,0
2018-02-25T01:00:47.889Z,0
2018-02-25T01:01:49.530Z,0
2018-02-25T01:02:51.208Z,0
2018-02-25T01:03:52.847Z,0
2018-02-25T01:04:54.488Z,0
2018-02-25T01:05:56.133Z,0
2018-02-25T01:06:57.782Z,0
2018-02-25T01:07:59.432Z,0
2018-02-25T01:09:01.074Z,0
2018-02-25T01:10:02.720Z,0
2018-02-25T01:11:04.366Z,0
2018-02-25T01:12:06.012Z,0
2018-02-25T01:13:07.647Z,0
2018-02-25T01:14:09.297Z,0
2018-02-25T01:15:10.938Z,0
2018-02-25T01:16:12.620Z,0
2018-02-25T01:17:14.288Z,0
2018-02-25T01:18:15.927Z,0
2018-02-25T01:19:17.570Z,0
2018-02-25T01:20:19.224Z,0
2018-02-25T01:21:20.865Z,0
2018-02-25T01:22:22.506Z,0
2018-02-25T01:23:24.156Z,0
2018-02-25T01:24:25.799Z,0
2018-02-25T01:25:27.453Z,0
2018-02-25T01:26:29.087Z,0
2018-02-25T01:27:30.744Z,0
2018-02-25T01:28:32.398Z,0
2018-02-25T01:29:34.064Z,0
2018-02-25T01:30:35.703Z,0
2018-02-25T01:31:37.357Z,0
2018-02-25T01:32:39.009Z,0
2018-02-25T01:33:40.661Z,0
2018-02-25T01:34:42.313Z,0
2018-02-25T01:35:43.961Z,0
2018-02-25T01:36:45.612Z,0
2018-02-25T01:37:47.270Z,0
2018-02-25T01:38:48.919Z,0
2018-02-25T01:39:50.564Z,0
2018-02-25T01:40:52.211Z,0
2018-02-25T01:41:53.885Z,0
2018-02-25T01:42:55.527Z,0
2018-02-25T01:43:57.174Z,0
2018-02-25T01:44:58.835Z,0
2018-02-25T01:46:00.484Z,0
2018-02-25T01:47:02.144Z,0
2018-02-25T01:48:03.789Z,0
2018-02-25T01:49:05.437Z,0
2018-02-25T01:50:07.098Z,0
2018-02-25T01:51:08.748Z,0
2018-02-25T01:52:10.388Z,0
2018-02-25T01:53:12.054Z,0
2018-02-25T01:54:13.700Z,0
2018-02-25T01:55:15.346Z,0
2018-02-25T01:56:16.992Z,0
2018-02-25T01:57:18.660Z,0
2018-02-25T01:58:20.295Z,0
2018-02-25T01:59:21.937Z,0
2018-02-25T02:00:23.582Z,0
2018-02-25T02:01:25.226Z,0
2018-02-25T02:02:26.872Z,0
2018-02-25T02:03:28.523Z,0
2018-02-25T02:04:30.172Z,0
2018-02-25T02:05:31.817Z,0
2018-02-25T02:06:33.468Z,0
2018-02-25T02:07:35.106Z,0
2018-02-25T02:08:36.769Z,0
2018-02-25T02:09:38.415Z,0
2018-02-25T02:10:40.053Z,0
2018-02-25T02:11:41.706Z,0
2018-02-25T02:12:43.352Z,0
2018-02-25T02:13:45.000Z,0
2018-02-25T02:14:46.641Z,0
2018-02-25T02:15:48.288Z,0
2018-02-25T02:16:49.936Z,0
2018-02-25T02:17:51.579Z,0
2018-02-25T02:18:53.224Z,0
2018-02-25T02:19:54.867Z,0
2018-02-25T02:20:56.564Z,0
2018-02-25T02:21:58.209Z,0
2018-02-25T02:22:59.885Z,0
2018-02-25T02:24:01.533Z,0
2018-02-25T02:25:03.177Z,0
2018-02-25T02:26:04.830Z,0
2018-02-25T02:27:06.469Z,0
2018-02-25T02:28:08.112Z,0
2018-02-25T02:29:09.764Z,0
2018-02-25T02:30:11.413Z,0
2018-02-25T02:31:13.053Z,0
2018-02-25T02:32:14.695Z,0
2018-02-25T02:33:16.347Z,0
2018-02-25T02:34:18.001Z,0
2018-02-25T02:35:19.648Z,0
2018-02-25T02:36:21.292Z,0
2018-02-25T02:37:22.929Z,0
2018-02-25T02:38:24.907Z,0
2018-02-25T02:39:26.552Z,0
2018-02-25T02:40:28.198Z,0
2018-02-25T02:41:29.850Z,0
2018-02-25T02:42:31.480Z,0
2018-02-25T02:43:33.128Z,0
2018-02-25T02:44:34.778Z,0
2018-02-25T02:45:36.417Z,0
2018-02-25T02:46:38.142Z,0
2018-02-25T02:47:39.803Z,0
2018-02-25T02:48:41.449Z,0
2018-02-25T02:49:43.087Z,0
2018-02-25T02:50:44.730Z,0
2018-02-25T02:51:46.382Z,0
2018-02-25T02:52:48.026Z,0
2018-02-25T02:53:49.682Z,0
2018-02-25T02:54:51.332Z,0
2018-02-25T03:01:13.023Z,0
2018-02-25T03:02:14.665Z,0
2018-02-25T03:04:06.565Z,0
2018-02-25T03:05:08.200Z,0
2018-02-25T03:06:09.844Z,0
2018-02-25T03:07:11.485Z,0
2018-02-25T03:08:13.121Z,0
2018-02-25T03:09:14.779Z,0
2018-02-25T03:10:16.419Z,0
2018-02-25T03:11:18.182Z,0
2018-02-25T03:12:19.774Z,0
2018-02-25T03:13:21.410Z,0
2018-02-25T03:14:23.051Z,0
2018-02-25T03:15:24.694Z,0
2018-02-25T03:16:26.338Z,0
2018-02-25T03:17:27.988Z,0
2018-02-25T03:18:29.634Z,0
2018-02-25T03:19:31.284Z,0
2018-02-25T03:20:32.916Z,0
2018-02-25T03:21:34.558Z,0
2018-02-25T03:22:36.194Z,0
2018-02-25T03:23:37.837Z,0
2018-02-25T03:24:39.481Z,0
2018-02-25T03:25:41.121Z,0
2018-02-25T03:26:42.776Z,0
2018-02-25T03:27:44.418Z,0
2018-02-25T03:28:46.057Z,0
2018-02-25T03:29:47.702Z,0
2018-02-25T03:30:49.360Z,0
2018-02-25T03:31:51.028Z,0
2018-02-25T03:32:52.642Z,0
2018-02-25T03:33:54.283Z,0
2018-02-25T03:34:55.935Z,0
2018-02-25T03:35:57.590Z,0
2018-02-25T03:36:59.218Z,0
2018-02-25T03:38:00.871Z,0
2018-02-25T03:39:02.506Z,0
2018-02-25T03:40:04.153Z,0
2018-02-25T03:41:05.800Z,0
2018-02-25T03:42:07.434Z,0
2018-02-25T03:43:09.076Z,0
2018-02-25T03:44:10.722Z,0
2018-02-25T03:45:12.369Z,0
2018-02-25T03:46:14.011Z,0
2018-02-25T03:47:15.657Z,0
2018-02-25T03:48:17.297Z,0
2018-02-25T03:49:18.940Z,0
2018-02-25T03:50:20.584Z,0
2018-02-25T03:51:22.234Z,0
2018-02-25T03:52:23.895Z,0
2018-02-25T03:53:25.539Z,0
2018-02-25T03:54:27.195Z,0
2018-02-25T03:55:28.829Z,0
2018-02-25T03:56:30.471Z,0
2018-02-25T03:57:32.117Z,0
2018-02-25T03:58:33.755Z,0
2018-02-25T03:59:35.397Z,0
2018-02-25T04:00:37.055Z,0
2018-02-25T04:01:38.711Z,0
2018-02-25T04:02:40.352Z,0
2018-02-25T04:03:42.025Z,0
2018-02-25T04:04:43.674Z,0
2018-02-25T04:05:45.319Z,0
2018-02-25T04:06:46.969Z,0
2018-02-25T04:07:48.612Z,0
2018-02-25T04:08:50.254Z,0
2018-02-25T04:09:51.895Z,0
2018-02-25T04:10:53.538Z,0
2018-02-25T04:11:55.180Z,0
2018-02-25T04:12:56.824Z,0
2018-02-25T04:13:58.469Z,0
2018-02-25T04:15:00.117Z,0
2018-02-25T04:16:01.760Z,0
2018-02-25T04:17:03.419Z,0
2018-02-25T04:18:05.061Z,0
2018-02-25T04:19:06.707Z,0
2018-02-25T04:20:08.365Z,0
2018-02-25T04:21:10.004Z,0
2018-02-25T04:22:11.656Z,0
2018-02-25T04:23:13.308Z,0
2018-02-25T04:24:14.956Z,0
2018-02-25T04:25:16.591Z,0
2018-02-25T04:26:18.373Z,0
2018-02-25T04:27:19.902Z,0
2018-02-25T04:28:21.552Z,0
2018-02-25T04:29:23.200Z,0
2018-02-25T04:30:24.845Z,0
2018-02-25T04:31:26.489Z,0
2018-02-25T04:32:28.140Z,0
2018-02-25T04:33:29.785Z,0
2018-02-25T04:34:31.434Z,0
2018-02-25T04:35:33.077Z,0
2018-02-25T04:36:34.730Z,0
2018-02-25T04:37:36.365Z,0
2018-02-25T04:38:38.012Z,0
2018-02-25T04:39:39.659Z,0
2018-02-25T04:40:41.353Z,0
2018-02-25T04:41:42.999Z,0
2018-02-25T04:42:44.751Z,0
2018-02-25T04:43:46.401Z,0
2018-02-25T04:44:48.055Z,0
2018-02-25T04:45:49.697Z,0
2018-02-25T04:46:51.340Z,0
2018-02-25T04:47:52.984Z,0
2018-02-25T04:48:54.626Z,0
2018-02-25T04:49:56.295Z,0
2018-02-25T04:50:57.939Z,0
2018-02-25T04:51:59.581Z,0
2018-02-25T04:53:01.226Z,0
2018-02-25T04:54:02.880Z,0
2018-02-25T04:55:04.519Z,0
2018-02-25T04:56:06.166Z,0
2018-02-25T04:57:07.809Z,0
2018-02-25T04:58:09.456Z,0
2018-02-25T04:59:11.116Z,0
2018-02-25T05:00:12.831Z,0
2018-02-25T05:01:15.452Z,0
2018-02-25T05:02:17.092Z,0
2018-02-25T05:03:18.740Z,0
2018-02-25T05:04:20.381Z,0
2018-02-25T05:05:22.028Z,0
2018-02-25T05:06:23.674Z,0
2018-02-25T05:07:25.317Z,0
2018-02-25T05:08:26.961Z,0
2018-02-25T05:09:28.608Z,0
2018-02-25T05:10:30.250Z,0
2018-02-25T05:11:31.893Z,0
2018-02-25T05:12:33.543Z,0
2018-02-25T05:13:35.191Z,0
2018-02-25T05:14:36.839Z,0
2018-02-25T05:15:38.494Z,0
2018-02-25T05:16:40.143Z,0
2018-02-25T05:17:41.797Z,0
2018-02-25T05:18:43.445Z,0
2018-02-25T05:19:45.108Z,0
2018-02-25T05:20:46.755Z,0
2018-02-25T05:21:48.406Z,0
2018-02-25T05:22:50.056Z,0
2018-02-25T05:23:51.707Z,0
2018-02-25T05:24:53.344Z,0
2018-02-25T05:25:54.989Z,0
2018-02-25T05:26:56.620Z,0
2018-02-25T05:27:58.339Z,0
2018-02-25T05:28:59.981Z,0
2018-02-25T05:30:01.630Z,0
2018-02-25T05:31:03.270Z,0
2018-02-25T05:32:04.917Z,0
2018-02-25T05:33:06.563Z,0
2018-02-25T05:34:08.202Z,0
2018-02-25T05:35:09.848Z,0
2018-02-25T05:36:11.496Z,0
2018-02-25T05:37:13.144Z,0
2018-02-25T05:38:14.784Z,0
2018-02-25T05:39:16.428Z,0
2018-02-25T05:40:18.072Z,0
2018-02-25T05:41:19.709Z,0
2018-02-25T05:42:21.383Z,0
2018-02-25T05:43:23.023Z,0
2018-02-25T05:44:24.668Z,4
2018-02-25T05:45:26.322Z,4
2018-02-25T05:46:27.962Z,0
2018-02-25T05:47:29.604Z,4
2018-02-25T05:48:31.244Z,0
2018-02-25T05:49:32.889Z,4
2018-02-25T05:50:34.535Z,4
2018-02-25T05:51:36.187Z,4
2018-02-25T05:52:37.834Z,8
2018-02-25T05:53:39.491Z,8
2018-02-25T05:54:41.129Z,12
2018-02-25T05:55:42.786Z,12
2018-02-25T05:56:44.426Z,16
2018-02-25T05:57:46.068Z,16
2018-02-25T05:58:47.714Z,20
2018-02-25T05:59:49.363Z,28
2018-02-25T06:00:50.996Z,32
2018-02-25T06:01:52.642Z,36
2018-02-25T06:02:54.287Z,44
2018-02-25T06:03:55.935Z,52
2018-02-25T06:04:57.624Z,64
2018-02-25T06:05:59.264Z,76
2018-02-25T06:07:00.905Z,88
2018-02-25T06:08:02.556Z,104
2018-02-25T06:09:04.206Z,120
2018-02-25T06:10:05.851Z,136
2018-02-25T06:11:07.504Z,156
2018-02-25T06:12:09.154Z,176
2018-02-25T06:13:10.802Z,204
2018-02-25T06:14:12.451Z,232
2018-02-25T06:15:14.132Z,260
2018-02-25T06:16:15.747Z,288
2018-02-25T06:17:17.392Z,320
2018-02-25T06:18:19.037Z,356
2018-02-25T06:19:20.806Z,392
2018-02-25T06:20:22.451Z,436
2018-02-25T06:21:24.115Z,480
2018-02-25T06:22:25.763Z,524
2018-02-25T06:23:27.413Z,568
2018-02-25T06:24:29.067Z,620
2018-02-25T06:25:30.727Z,672
2018-02-25T06:26:32.399Z,728
2018-02-25T06:27:34.236Z,784
2018-02-25T06:28:35.919Z,840
2018-02-25T06:29:37.570Z,900
2018-02-25T06:30:39.222Z,964
2018-02-25T06:31:40.864Z,1024
2018-02-25T06:32:42.520Z,1092
2018-02-25T06:33:44.182Z,1156
2018-02-25T06:34:45.824Z,1224
2018-02-25T06:35:47.478Z,1292
2018-02-25T06:36:49.149Z,1364
2018-02-25T06:37:50.801Z,1436
2018-02-25T06:38:54.296Z,1508
2018-02-25T06:39:55.947Z,1584
2018-02-25T06:40:57.672Z,1652
2018-02-25T06:41:59.442Z,1732
2018-02-25T06:43:01.093Z,1808
2018-02-25T06:44:02.761Z,1884
2018-02-25T06:45:04.458Z,1960
2018-02-25T06:46:06.068Z,2040
2018-02-25T06:47:07.734Z,2120
2018-02-25T06:48:09.397Z,2196
2018-02-25T06:49:11.041Z,2272
2018-02-25T06:50:12.690Z,2344
2018-02-25T06:51:14.339Z,2420
2018-02-25T06:52:15.980Z,2492
2018-02-25T06:53:17.628Z,2572
2018-02-25T06:54:19.282Z,2644
2018-02-25T06:55:20.925Z,2720
2018-02-25T07:02:03.524Z,4580
2018-02-25T07:03:05.173Z,4736
2018-02-25T07:04:06.822Z,4872
2018-02-25T07:05:08.476Z,5012
2018-02-25T07:06:10.120Z,5176
2018-02-25T07:07:11.767Z,5324
2018-02-25T07:08:13.430Z,5472
2018-02-25T07:09:15.069Z,5636
2018-02-25T07:10:16.724Z,5752
2018-02-25T07:11:18.365Z,5920
2018-02-25T07:12:20.027Z,6064
2018-02-25T07:13:21.680Z,6228
2018-02-25T07:14:23.337Z,6376
2018-02-25T07:15:24.990Z,6532
2018-02-25T07:16:26.639Z,6708
2018-02-25T07:17:28.302Z,6880
2018-02-25T07:18:29.947Z,7052
2018-02-25T07:19:31.597Z,7196
2018-02-25T07:20:33.264Z,7368
2018-02-25T07:21:34.924Z,7520
2018-02-25T07:22:36.571Z,7664
2018-02-25T07:23:38.222Z,7824
2018-02-25T07:24:39.886Z,8000
2018-02-25T07:25:41.529Z,8216
2018-02-25T07:26:43.196Z,8436
2018-02-25T07:27:44.857Z,8608
2018-02-25T07:28:46.502Z,8772
2018-02-25T07:29:48.169Z,8964
2018-02-25T07:30:49.820Z,9188
2018-02-25T07:31:51.481Z,9400
2018-02-25T07:32:53.146Z,9652
2018-02-25T07:33:54.861Z,9984
2018-02-25T07:34:56.521Z,10296
2018-02-25T07:35:58.183Z,10552
2018-02-25T07:36:59.846Z,10904
2018-02-25T07:38:01.503Z,11264
2018-02-25T07:39:03.164Z,11556
2018-02-25T07:40:04.815Z,12016
2018-02-25T07:41:06.478Z,12536
2018-02-25T07:42:08.136Z,13252
2018-02-25T07:43:09.786Z,14264
2018-02-25T07:44:11.439Z,15676
2018-02-25T07:45:13.100Z,18144
2018-02-25T07:46:14.773Z,21376
2018-02-25T07:47:16.426Z,24832
2018-02-25T07:48:18.085Z,28640
2018-02-25T07:49:19.747Z,32224
2018-02-25T07:50:21.397Z,34336
2018-02-25T07:51:23.050Z,33984
2018-02-25T07:52:24.710Z,34592
2018-02-25T07:53:26.375Z,39200
2018-02-25T07:54:28.035Z,48160
2018-02-25T07:55:29.690Z,61600
2018-02-25T07:56:31.526Z,76384
2018-02-25T07:57:33.211Z,90336
2018-02-25T07:58:34.878Z,95680
2018-02-25T07:59:36.572Z,90176
2018-02-25T08:00:38.240Z,75840
2018-02-25T08:01:39.981Z,62400
2018-02-25T08:02:41.726Z,55392
2018-02-25T08:03:43.396Z,51872
2018-02-25T08:04:45.054Z,49920
2018-02-25T08:05:46.723Z,49888
2018-02-25T08:06:48.385Z,45504
2018-02-25T08:07:50.041Z,41728
2018-02-25T08:08:52.051Z,40064
2018-02-25T08:09:53.721Z,45088
2018-02-25T08:10:55.531Z,42752
2018-02-25T08:11:57.198Z,36736
2018-02-25T08:12:58.860Z,32832
2018-02-25T08:14:00.523Z,35968
2018-02-25T08:15:02.203Z,38208
2018-02-25T08:16:03.860Z,37920
2018-02-25T08:17:05.504Z,38080
2018-02-25T08:18:07.159Z,37504
2018-02-25T08:19:08.824Z,35872
2018-02-25T08:20:10.484Z,35456
2018-02-25T08:21:12.142Z,35072
2018-02-25T08:22:13.798Z,33952
2018-02-25T08:23:15.490Z,34016
2018-02-25T08:24:17.143Z,35296
2018-02-25T08:25:18.816Z,35456
2018-02-25T08:26:20.473Z,34656
2018-02-25T08:27:22.136Z,33280
2018-02-25T08:28:23.948Z,33120
2018-02-25T08:29:25.606Z,35232
2018-02-25T08:30:27.270Z,39520
2018-02-25T08:31:28.926Z,41920
2018-02-25T08:32:30.617Z,41440
2018-02-25T08:33:32.282Z,41056
2018-02-25T08:34:33.950Z,38048
2018-02-25T08:35:35.610Z,37600
2018-02-25T08:36:37.277Z,39136
2018-02-25T08:37:39.243Z,39776
2018-02-25T08:38:41.175Z,39904
2018-02-25T08:39:42.826Z,40416
2018-02-25T08:40:44.482Z,42208
2018-02-25T08:41:46.157Z,41248
2018-02-25T08:42:47.815Z,40544
2018-02-25T08:43:49.545Z,40096
2018-02-25T08:44:51.334Z,39840
2018-02-25T08:45:53.002Z,39456
2018-02-25T08:46:54.666Z,39808
2018-02-25T08:47:56.329Z,41184
2018-02-25T08:48:57.992Z,42016
2018-02-25T08:49:59.740Z,43968
2018-02-25T08:51:01.399Z,46528
2018-02-25T08:52:03.064Z,44896
2018-02-25T08:53:04.721Z,40512
2018-02-25T08:54:06.489Z,38656
2018-02-25T08:55:08.149Z,40576
2018-02-25T08:56:09.823Z,41760
2018-02-25T08:57:11.496Z,42112
2018-02-25T08:58:13.146Z,40704
2018-02-25T08:59:14.804Z,39264
2018-02-25T09:00:16.465Z,38048
2018-02-25T09:01:18.140Z,37952
2018-02-25T09:02:19.806Z,41824
2018-02-25T09:03:21.468Z,46912
2018-02-25T09:04:23.132Z,51744
2018-02-25T09:05:24.855Z,51072
2018-02-25T09:06:26.513Z,47136
2018-02-25T09:07:28.167Z,44704
2018-02-25T09:08:29.846Z,47712
2018-02-25T09:09:31.500Z,49952
2018-02-25T09:10:33.156Z,47008
2018-02-25T09:11:34.829Z,40320
2018-02-25T09:12:36.579Z,35520
2018-02-25T09:13:38.171Z,33248
2018-02-25T09:14:39.827Z,32480
2018-02-25T09:15:41.602Z,31904
2018-02-25T09:16:43.262Z,31296
2018-02-25T09:17:44.925Z,30560
2018-02-25T09:18:46.587Z,29664
2018-02-25T09:19:48.247Z,29152
2018-02-25T09:20:49.921Z,29344
2018-02-25T09:21:51.603Z,29408
2018-02-25T09:22:53.265Z,29024
2018-02-25T09:23:54.933Z,28448
2018-02-25T09:24:56.615Z,28544
2018-02-25T09:25:58.302Z,28544
2018-02-25T09:26:59.970Z,28256
2018-02-25T09:28:01.641Z,28608
2018-02-25T09:29:03.313Z,28896
2018-02-25T09:30:04.969Z,29248
2018-02-25T09:31:06.633Z,29760
2018-02-25T09:32:08.283Z,31648
2018-02-25T09:33:09.951Z,33312
2018-02-25T09:34:11.611Z,33280
2018-02-25T09:35:13.268Z,34112
2018-02-25T09:36:14.923Z,34240
2018-02-25T09:37:16.582Z,34880
2018-02-25T09:38:18.250Z,35264
2018-02-25T09:39:19.912Z,35392
2018-02-25T09:40:21.579Z,36224
2018-02-25T09:41:23.283Z,38784
2018-02-25T09:42:24.916Z,40320
2018-02-25T09:43:26.604Z,38880
2018-02-25T09:44:28.246Z,38656
2018-02-25T09:45:29.910Z,40608
2018-02-25T09:46:31.613Z,44288
2018-02-25T09:47:33.277Z,45600
2018-02-25T09:48:34.970Z,44448
2018-02-25T09:49:36.634Z,43008
2018-02-25T09:50:38.293Z,41184
2018-02-25T09:51:39.959Z,46208
2018-02-25T09:52:41.636Z,54176
2018-02-25T09:53:43.324Z,61984
2018-02-25T09:54:44.992Z,60928
2018-02-25T09:55:46.654Z,53568
2018-02-25T09:56:48.335Z,46368
2018-02-25T09:57:50.051Z,47904
2018-02-25T09:58:51.714Z,57280
2018-02-25T09:59:53.377Z,62272
2018-02-25T10:00:55.051Z,64288
2018-02-25T10:01:56.709Z,65664
2018-02-25T10:02:58.374Z,66528
2018-02-25T10:04:00.029Z,67168
2018-02-25T10:05:01.693Z,68032
2018-02-25T10:06:03.355Z,65984
2018-02-25T10:07:05.020Z,67552
2018-02-25T10:08:06.709Z,74912
2018-02-25T10:09:08.375Z,76224
2018-02-25T10:10:10.046Z,83616
2018-02-25T10:11:11.709Z,87552
2018-02-25T10:12:13.406Z,85152
2018-02-25T10:13:15.063Z,78080
2018-02-25T10:14:16.788Z,82304
2018-02-25T10:15:18.443Z,90496
2018-02-25T10:16:20.109Z,84416
2018-02-25T10:17:21.774Z,71648
2018-02-25T10:18:23.435Z,77888
2018-02-25T10:19:25.104Z,91072
2018-02-25T10:20:26.827Z,92736
2018-02-25T10:21:28.504Z,86848
2018-02-25T10:22:30.181Z,70496
2018-02-25T10:23:31.855Z,64608
2018-02-25T10:24:33.524Z,73888
2018-02-25T10:25:35.306Z,74784
2018-02-25T10:26:37.593Z,76416
2018-02-25T10:27:39.310Z,84736
2018-02-25T10:28:40.994Z,88736
2018-02-25T10:29:42.661Z,97184
2018-02-25T10:30:44.335Z,102816
2018-02-25T10:31:48.370Z,100640
2018-02-25T10:32:50.050Z,98048
2018-02-25T10:33:51.727Z,94912
2018-02-25T10:34:53.601Z,93728
2018-02-25T10:35:55.284Z,97280
2018-02-25T10:38:10.189Z,99136
2018-02-25T11:01:34.288Z,85632
2018-02-25T11:02:35.948Z,86720
2018-02-25T11:03:37.625Z,85664
2018-02-25T11:04:39.285Z,85344
2018-02-25T11:05:40.967Z,85600
2018-02-25T11:06:42.627Z,83520
2018-02-25T11:07:44.286Z,82272
2018-02-25T11:08:45.969Z,81088
2018-02-25T11:09:48.212Z,81728
2018-02-25T11:10:49.828Z,80224
2018-02-25T11:11:51.503Z,79616
2018-02-25T11:12:53.179Z,78400
2018-02-25T11:13:54.841Z,78656
2018-02-25T11:14:56.511Z,79168
2018-02-25T11:15:58.175Z,76480
2018-02-25T11:16:59.840Z,76704
2018-02-25T11:18:01.506Z,74176
2018-02-25T11:19:03.681Z,68032
2018-02-25T11:20:05.743Z,67040
2018-02-25T11:21:07.393Z,69152
2018-02-25T11:22:09.060Z,69568
2018-02-25T11:23:10.735Z,68992
2018-02-25T11:24:12.438Z,69696
2018-02-25T11:25:14.101Z,68000
2018-02-25T11:26:15.767Z,65824
2018-02-25T11:27:17.430Z,64608
2018-02-25T11:28:19.094Z,63072
2018-02-25T11:29:20.767Z,65440
2018-02-25T11:30:22.430Z,65536
2018-02-25T11:31:24.128Z,64032
2018-02-25T11:32:25.754Z,64512
2018-02-25T11:33:33.454Z,65984
2018-02-25T11:34:34.758Z,65504
2018-02-25T11:35:36.413Z,64128
2018-02-25T11:36:38.209Z,64096
2018-02-25T11:37:39.856Z,64864
2018-02-25T11:39:51.050Z,65472
2018-02-25T11:40:54.305Z,65856
2018-02-25T11:41:55.973Z,65536
2018-02-25T11:42:57.665Z,64288
2018-02-25T11:43:59.335Z,63488
2018-02-25T11:45:01.008Z,62816
2018-02-25T11:46:02.674Z,66848
2018-02-25T11:47:04.331Z,67360
2018-02-25T11:48:06.003Z,67296
2018-02-25T11:49:07.673Z,67040
2018-02-25T11:50:09.351Z,68288
2018-02-25T11:51:11.009Z,68320
2018-02-25T11:52:12.671Z,67040
2018-02-25T11:53:14.355Z,66624
2018-02-25T11:54:15.996Z,64576
2018-02-25T11:55:17.735Z,63136
2018-02-25T11:59:02.971Z,66528
2018-02-25T12:00:04.643Z,66496
2018-02-25T12:01:56.574Z,59616
2018-02-25T12:04:07.825Z,44768
2018-02-25T12:05:09.491Z,36128
2018-02-25T12:06:11.157Z,30304
2018-02-25T12:07:12.819Z,27072
2018-02-25T12:08:14.482Z,26240
2018-02-25T12:09:16.143Z,25824
2018-02-25T12:10:17.801Z,25664
2018-02-25T12:11:19.468Z,26432
2018-02-25T12:12:21.142Z,26944
2018-02-25T12:13:22.799Z,27616
2018-02-25T12:14:25.800Z,29248
2018-02-25T12:15:27.459Z,31008
2018-02-25T12:16:29.142Z,32672
2018-02-25T12:17:31.037Z,34208
2018-02-25T12:18:32.891Z,35328
2018-02-25T12:19:34.555Z,35904
2018-02-25T12:20:39.452Z,37408
2018-02-25T12:21:41.211Z,37472
2018-02-25T12:22:43.797Z,46368
2018-02-25T12:23:47.545Z,62880
2018-02-25T12:24:49.027Z,84160
2018-02-25T12:25:51.054Z,99328
2018-02-25T12:26:53.229Z,103008
2018-02-25T12:43:43.478Z,33216
2018-02-25T12:44:45.008Z,30464
2018-02-25T12:45:46.679Z,29408
2018-02-25T12:46:48.345Z,28256
2018-02-25T12:47:54.152Z,27264
2018-02-25T12:48:56.023Z,24928
2018-02-25T12:49:58.262Z,21376
2018-02-25T12:51:00.229Z,19136
2018-02-25T12:52:02.057Z,17076
2018-02-25T12:53:03.742Z,16792
2018-02-25T12:54:05.436Z,16432
2018-02-25T12:55:07.597Z,17668
2018-02-25T12:56:09.358Z,17236
2018-02-25T12:57:11.049Z,19648
2018-02-25T12:58:12.777Z,20096
2018-02-25T12:59:14.512Z,19488
2018-02-25T13:00:16.253Z,20000
2018-02-25T13:01:18.059Z,20448
2018-02-25T13:02:19.813Z,20288
2018-02-25T13:03:21.617Z,20192
2018-02-25T13:04:23.714Z,20384
2018-02-25T13:05:26.544Z,20928
2018-02-25T13:06:29.114Z,23008
2018-02-25T13:07:31.073Z,23040
2018-02-25T13:08:33.115Z,21152
2018-02-25T13:09:34.936Z,20128
2018-02-25T13:10:36.798Z,20224
2018-02-25T13:11:38.547Z,20736
2018-02-25T13:12:40.379Z,21312
2018-02-25T13:13:42.213Z,23040
2018-02-25T13:14:44.124Z,24576
2018-02-25T13:15:47.896Z,25248
2018-02-25T13:16:49.906Z,25664
2018-02-25T13:17:52.049Z,27136
2018-02-25T13:18:53.825Z,28032
2018-02-25T13:19:55.522Z,26656
2018-02-25T13:20:57.376Z,25856
2018-02-25T13:21:59.570Z,25696
2018-02-25T13:23:01.875Z,23712
2018-02-25T13:24:04.367Z,21120
2018-02-25T13:25:06.141Z,19968
2018-02-25T13:26:07.816Z,19904
2018-02-25T13:27:09.553Z,20640
2018-02-25T13:28:11.357Z,22720
2018-02-25T13:29:13.155Z,25696
2018-02-25T13:30:15.108Z,27456
2018-02-25T13:31:16.809Z,25792
2018-02-25T13:32:18.575Z,21216
2018-02-25T13:33:20.287Z,17292
2018-02-25T13:34:22.709Z,16108
2018-02-25T13:35:24.366Z,15776
2018-02-25T13:36:26.134Z,15576
2018-02-25T13:37:28.384Z,16044
2018-02-25T13:38:30.655Z,15968
2018-02-25T13:39:58.877Z,15832
2018-02-25T13:41:00.537Z,16160
2018-02-25T13:42:02.234Z,16328
2018-02-25T13:43:03.952Z,16628
2018-02-25T13:44:05.970Z,16856
2018-02-25T13:45:07.663Z,16912
2018-02-25T13:46:09.455Z,16860
2018-02-25T13:47:11.108Z,16788
2018-02-25T13:48:12.766Z,16464
2018-02-25T13:49:14.438Z,16776
2018-02-25T13:50:16.110Z,17228
2018-02-25T13:51:17.768Z,16040
2018-02-25T13:52:19.565Z,16508
2018-02-25T13:53:21.253Z,17856
2018-02-25T13:54:22.935Z,18272
2018-02-25T13:55:24.588Z,18464
2018-02-25T13:56:26.290Z,18624
2018-02-25T13:57:27.952Z,18848
2018-02-25T13:58:29.627Z,18752
2018-02-25T13:59:31.639Z,18592
2018-02-25T14:00:33.371Z,18432
2018-02-25T14:01:35.060Z,18208
2018-02-25T14:02:36.722Z,17736
2018-02-25T14:03:38.394Z,17292
2018-02-25T14:04:40.108Z,17032
2018-02-25T14:05:42.000Z,16632
2018-02-25T14:06:43.687Z,16096
2018-02-25T14:07:45.800Z,15448
2018-02-25T14:08:47.500Z,14988
2018-02-25T14:09:49.170Z,14464
2018-02-25T14:10:50.978Z,14024
2018-02-25T14:11:52.614Z,13576
2018-02-25T14:12:55.910Z,13112
2018-02-25T14:13:58.434Z,12604
2018-02-25T14:15:00.136Z,12180
2018-02-25T14:16:01.881Z,12136
2018-02-25T14:17:03.567Z,12260
2018-02-25T14:18:05.800Z,12616
2018-02-25T14:19:07.632Z,12080
2018-02-25T14:20:09.569Z,11820
2018-02-25T14:21:11.541Z,12632
2018-02-25T14:22:13.250Z,13252
2018-02-25T14:23:14.994Z,13648
2018-02-25T14:24:16.751Z,13676
2018-02-25T14:25:18.789Z,13660
2018-02-25T14:26:20.508Z,13768
2018-02-25T14:27:22.280Z,14012
2018-02-25T14:28:24.019Z,14344
2018-02-25T14:29:25.894Z,14680
2018-02-25T14:30:27.680Z,15040
2018-02-25T14:31:29.358Z,15272
2018-02-25T14:32:31.215Z,15492
2018-02-25T14:33:32.939Z,15528
2018-02-25T14:34:34.941Z,15052
2018-02-25T14:35:36.740Z,13800
2018-02-25T14:36:38.505Z,13192
2018-02-25T14:37:40.521Z,12816
2018-02-25T14:38:42.257Z,12380
2018-02-25T14:39:44.143Z,11920
2018-02-25T14:40:45.990Z,11492
2018-02-25T14:41:47.785Z,11156
2018-02-25T14:42:50.055Z,11092
2018-02-25T14:43:52.055Z,11200
2018-02-25T14:44:53.913Z,11408
2018-02-25T14:45:55.720Z,11708
2018-02-25T14:46:57.632Z,12080
2018-02-25T14:47:59.824Z,12416
2018-02-25T14:49:01.666Z,12688
2018-02-25T14:50:03.355Z,12872
2018-02-25T14:51:05.086Z,12904
2018-02-25T14:52:06.906Z,12776
2018-02-25T14:53:08.762Z,12688
2018-02-25T14:54:10.514Z,12648
2018-02-25T14:55:12.367Z,12704
2018-02-25T15:01:21.831Z,13216
2018-02-25T15:02:23.558Z,12828
2018-02-25T15:04:15.388Z,11992
2018-02-25T15:05:17.044Z,11564
2018-02-25T15:07:08.851Z,10880
2018-02-25T15:08:10.505Z,10548